createdAt,value
2022-11-20T00:01:05.105Z,99520.13
2022-11-20T00:03:31.308Z,99523.50
2022-11-20T00:06:03.939Z,99516.56
2022-11-20T00:08:30.155Z,99515.59
2022-11-20T00:10:56.360Z,99511.44
2022-11-20T00:13:22.573Z,99512.63
2022-11-20T00:15:48.768Z,99510.47
2022-11-20T00:18:15.061Z,99499.59
2022-11-20T00:20:41.277Z,99500.19
2022-11-20T00:23:07.495Z,99501.19
2022-11-20T00:25:36.788Z,99502.16
2022-11-20T00:28:02.992Z,99498.19
2022-11-20T00:30:29.184Z,99498.00
2022-11-20T00:32:56.999Z,99497.78
2022-11-20T00:35:23.192Z,99491.66
2022-11-20T00:37:49.391Z,99499.56
2022-11-20T00:40:15.592Z,99496.22
2022-11-20T00:42:41.792Z,99497.00
2022-11-20T00:45:08.085Z,99491.88
2022-11-20T00:47:34.301Z,99488.31
2022-11-20T00:50:00.496Z,99486.13
2022-11-20T00:52:26.700Z,99470.72
2022-11-20T00:54:52.907Z,99475.69
2022-11-20T00:57:19.121Z,99475.28
2022-11-20T00:59:45.324Z,99474.69
2022-11-20T01:02:11.528Z,99465.22
2022-11-20T01:04:37.739Z,99469.75
2022-11-20T01:07:03.973Z,99464.78
2022-11-20T01:09:30.209Z,99470.72
2022-11-20T01:11:56.413Z,99471.13
2022-11-20T01:14:22.616Z,99461.28
2022-11-20T01:16:49.746Z,99460.84
2022-11-20T01:19:18.129Z,99466.00
2022-11-20T01:21:44.968Z,99456.50
2022-11-20T01:24:12.117Z,99448.59
2022-11-20T01:26:38.719Z,99457.28
2022-11-20T01:29:04.996Z,99454.94
2022-11-20T01:31:32.021Z,99454.13
2022-11-20T01:33:59.148Z,99455.91
2022-11-20T01:36:26.268Z,99448.44
2022-11-20T01:38:52.854Z,99450.78
2022-11-20T01:41:19.048Z,99445.84
2022-11-20T01:43:45.251Z,99444.47
2022-11-20T01:46:14.244Z,99445.47
2022-11-20T01:49:09.577Z,99432.63
2022-11-20T01:51:40.119Z,99436.00
2022-11-20T01:54:07.843Z,99441.75
2022-11-20T01:56:34.799Z,99442.53
2022-11-20T01:59:01.001Z,99433.63
2022-11-20T02:01:27.270Z,99435.19
2022-11-20T02:03:53.518Z,99423.56
2022-11-20T02:06:30.145Z,99416.66
2022-11-20T02:08:56.348Z,99417.22
2022-11-20T02:11:22.557Z,99422.38
2022-11-20T02:13:48.771Z,99428.28
2022-11-20T02:16:14.930Z,99421.38
2022-11-20T02:18:41.175Z,99417.03
2022-11-20T02:21:08.129Z,99419.59
2022-11-20T02:23:38.487Z,99420.38
2022-11-20T02:26:05.097Z,99416.44
2022-11-20T02:28:31.329Z,99420.59
2022-11-20T02:30:57.540Z,99413.09
2022-11-20T02:33:23.745Z,99414.47
2022-11-20T02:35:49.939Z,99412.47
2022-11-20T02:38:16.200Z,99413.66
2022-11-20T02:40:42.426Z,99410.09
2022-11-20T02:43:08.689Z,99411.09
2022-11-20T02:45:34.895Z,99409.13
2022-11-20T02:48:01.092Z,99412.31
2022-11-20T02:50:27.317Z,99407.38
2022-11-20T02:52:53.520Z,99410.72
2022-11-20T02:55:19.728Z,99408.34
2022-11-20T02:57:46.100Z,99403.22
2022-11-20T03:00:12.641Z,99399.66
2022-11-20T03:02:38.845Z,99402.81
2022-11-20T03:05:05.047Z,99396.88
2022-11-20T03:07:31.312Z,99395.31
2022-11-20T03:09:57.558Z,99398.47
2022-11-20T03:12:23.765Z,99391.56
2022-11-20T03:14:52.998Z,99399.47
2022-11-20T03:17:19.567Z,99395.31
2022-11-20T03:19:45.769Z,99396.88
2022-11-20T03:22:11.979Z,99397.09
2022-11-20T03:24:38.193Z,99398.69
2022-11-20T03:27:04.393Z,99392.75
2022-11-20T03:29:30.596Z,99403.41
2022-11-20T03:31:56.793Z,99393.75
2022-11-20T03:34:23.146Z,99399.06
2022-11-20T03:36:49.428Z,99395.53
2022-11-20T03:39:15.749Z,99388.41
2022-11-20T03:41:42.109Z,99392.97
2022-11-20T03:44:13.772Z,99387.41
2022-11-20T03:46:42.896Z,99381.69
2022-11-20T03:49:09.233Z,99387.03
2022-11-20T03:51:35.944Z,99384.47
2022-11-20T03:54:03.311Z,99380.13
2022-11-20T03:56:30.387Z,99379.72
2022-11-20T03:58:59.149Z,99385.25
2022-11-20T04:01:26.528Z,99380.91
2022-11-20T04:03:53.194Z,99382.47
2022-11-20T04:06:20.419Z,99377.34
2022-11-20T04:08:53.622Z,99374.41
2022-11-20T04:11:30.252Z,99376.75
2022-11-20T04:14:00.149Z,99369.44
2022-11-20T04:16:30.229Z,99377.13
2022-11-20T04:18:59.700Z,99366.88
2022-11-20T04:21:25.956Z,99363.94
2022-11-20T04:23:52.299Z,99354.03
2022-11-20T04:26:26.200Z,99358.78
2022-11-20T04:28:52.601Z,99359.59
2022-11-20T04:34:03.465Z,99344.75
2022-11-20T04:36:29.867Z,99357.19
2022-11-20T04:41:47.839Z,99345.97
2022-11-20T04:44:14.064Z,99349.09
2022-11-20T04:46:46.043Z,99344.75
2022-11-20T04:49:12.525Z,99343.78
2022-11-20T04:51:38.836Z,99346.75
2022-11-20T04:54:05.091Z,99345.75
2022-11-20T04:56:31.355Z,99342.00
2022-11-20T04:59:00.484Z,99336.66
2022-11-20T05:01:26.722Z,99344.75
2022-11-20T05:03:53.076Z,99333.13
2022-11-20T05:06:19.974Z,99337.44
2022-11-20T05:08:46.175Z,99330.53
2022-11-20T05:11:16.241Z,99322.63
2022-11-20T05:13:42.470Z,99322.81
2022-11-20T05:16:18.749Z,99322.44
2022-11-20T05:18:45.246Z,99320.66
2022-11-20T05:21:11.497Z,99320.06
2022-11-20T05:23:37.741Z,99313.38
2022-11-20T05:26:04.161Z,99313.16
2022-11-20T05:28:30.458Z,99315.72
2022-11-20T05:30:56.729Z,99321.25
2022-11-20T05:33:22.973Z,99314.94
2022-11-20T05:35:49.225Z,99315.13
2022-11-20T05:38:15.511Z,99305.25
2022-11-20T05:40:41.709Z,99307.41
2022-11-20T05:43:07.921Z,99304.66
2022-11-20T05:45:34.127Z,99304.47
2022-11-20T05:48:00.521Z,99309.59
2022-11-20T05:50:27.471Z,99305.47
2022-11-20T05:52:53.676Z,99303.88
2022-11-20T05:55:19.881Z,99295.56
2022-11-20T05:57:46.092Z,99301.31
2022-11-20T06:00:12.534Z,99298.53
2022-11-20T06:02:38.825Z,99294.78
2022-11-20T06:05:05.216Z,99296.56
2022-11-20T06:07:31.476Z,99288.84
2022-11-20T06:09:57.734Z,99287.84
2022-11-20T06:12:23.949Z,99289.44
2022-11-20T06:14:50.162Z,99290.44
2022-11-20T06:17:16.378Z,99285.28
2022-11-20T06:19:42.586Z,99281.72
2022-11-20T06:22:08.788Z,99287.66
2022-11-20T06:24:34.988Z,99290.00
2022-11-20T06:27:01.198Z,99287.66
2022-11-20T06:29:31.386Z,99289.22
2022-11-20T06:31:59.917Z,99294.56
2022-11-20T06:34:26.115Z,99295.34
2022-11-20T06:36:52.330Z,99291.16
2022-11-20T06:39:18.687Z,99293.94
2022-11-20T06:41:45.027Z,99291.38
2022-11-20T06:44:11.237Z,99293.16
2022-11-20T06:46:37.454Z,99293.75
2022-11-20T06:49:03.654Z,99290.16
2022-11-20T06:51:29.855Z,99289.59
2022-11-20T06:53:56.056Z,99290.38
2022-11-20T06:56:22.258Z,99281.47
2022-11-20T06:58:48.472Z,99280.47
2022-11-20T07:01:15.049Z,99282.03
2022-11-20T07:03:41.459Z,99279.66
2022-11-20T07:06:07.783Z,99274.69
2022-11-20T07:08:34.123Z,99272.91
2022-11-20T07:11:00.812Z,99280.44
2022-11-20T07:13:27.500Z,99280.44
2022-11-20T07:15:53.701Z,99285.38
2022-11-20T07:18:19.910Z,99286.75
2022-11-20T07:20:46.113Z,99285.19
2022-11-20T07:23:12.331Z,99280.63
2022-11-20T07:25:38.524Z,99286.75
2022-11-20T07:28:04.784Z,99287.53
2022-11-20T07:30:30.990Z,99286.97
2022-11-20T07:32:57.200Z,99287.94
2022-11-20T07:35:23.727Z,99286.75
2022-11-20T07:37:49.936Z,99292.25
2022-11-20T07:40:16.615Z,99289.84
2022-11-20T07:42:53.000Z,99290.84
2022-11-20T07:45:19.545Z,99289.03
2022-11-20T07:47:45.771Z,99288.25
2022-11-20T07:50:12.277Z,99281.94
2022-11-20T07:52:38.500Z,99273.81
2022-11-20T07:55:04.910Z,99281.47
2022-11-20T07:57:31.115Z,99286.59
2022-11-20T07:59:57.322Z,99288.56
2022-11-20T08:02:23.815Z,99289.38
2022-11-20T08:04:50.036Z,99295.66
2022-11-20T08:07:16.272Z,99294.41
2022-11-20T08:09:42.505Z,99299.13
2022-11-20T08:12:08.782Z,99299.72
2022-11-20T08:14:34.999Z,99305.59
2022-11-20T08:17:01.193Z,99302.78
2022-11-20T08:19:27.416Z,99314.22
2022-11-20T08:21:53.616Z,99313.28
2022-11-20T08:24:19.823Z,99325.13
2022-11-20T08:26:46.024Z,99335.00
2022-11-20T08:29:12.230Z,99343.91
2022-11-20T08:31:38.426Z,99353.50
2022-11-20T08:34:08.939Z,99371.84
2022-11-20T08:36:35.776Z,99389.50
2022-11-20T08:39:01.993Z,99403.94
2022-11-20T08:41:28.191Z,99418.66
2022-11-20T08:43:58.199Z,99430.34
2022-11-20T08:46:25.091Z,99446.78
2022-11-20T08:48:51.298Z,99466.56
2022-11-20T08:51:17.536Z,99480.94
2022-11-20T08:53:43.768Z,99479.41
2022-11-20T08:56:10.013Z,99486.91
2022-11-20T08:58:55.339Z,99498.34
2022-11-20T09:01:23.086Z,99513.03
2022-11-20T09:03:49.424Z,99522.38
2022-11-20T09:06:15.633Z,99526.16
2022-11-20T09:08:41.845Z,99529.59
2022-11-20T09:11:08.167Z,99534.53
2022-11-20T09:13:34.709Z,99533.53
2022-11-20T09:16:01.721Z,99544.41
2022-11-20T09:18:28.189Z,99540.63
2022-11-20T09:20:57.756Z,99550.91
2022-11-20T09:23:23.966Z,99561.63
2022-11-20T09:25:50.200Z,99562.84
2022-11-20T09:28:16.407Z,99564.19
2022-11-20T09:30:42.627Z,99570.13
2022-11-20T09:33:08.829Z,99578.38
2022-11-20T09:35:35.037Z,99581.09
2022-11-20T09:38:07.383Z,99578.75
2022-11-20T09:40:33.597Z,99587.22
2022-11-20T09:43:19.905Z,99597.75
2022-11-20T09:45:52.090Z,99598.19
2022-11-20T09:48:24.418Z,99604.06
2022-11-20T09:51:03.217Z,99604.31
2022-11-20T09:53:48.459Z,99610.53
2022-11-20T09:56:19.749Z,99608.94
2022-11-20T09:58:55.497Z,99613.81
2022-11-20T10:01:27.072Z,99613.25
2022-11-20T10:04:01.772Z,99617.78
2022-11-20T10:06:30.134Z,99628.63
2022-11-20T10:09:00.944Z,99627.97
2022-11-20T10:11:34.014Z,99620.94
2022-11-20T10:14:21.826Z,99625.97
2022-11-20T10:17:02.432Z,99622.31
2022-11-20T10:19:52.302Z,99631.53
2022-11-20T10:22:51.045Z,99647.78
2022-11-20T10:25:20.480Z,99657.28
2022-11-20T10:27:50.038Z,99663.00
2022-11-20T10:30:17.090Z,99666.59
2022-11-20T10:32:43.958Z,99673.72
2022-11-20T10:35:19.287Z,99679.00
2022-11-20T10:37:45.910Z,99682.81
2022-11-20T10:40:21.233Z,99700.16
2022-11-20T10:42:54.975Z,99700.75
2022-11-20T10:45:27.258Z,99706.00
2022-11-20T10:48:02.595Z,99712.16
2022-11-20T10:50:28.805Z,99705.03
2022-11-20T10:52:57.050Z,99722.25
2022-11-20T10:55:23.240Z,99723.38
2022-11-20T10:57:53.594Z,99734.16
2022-11-20T11:00:19.805Z,99735.69
2022-11-20T11:02:49.076Z,99736.00
2022-11-20T11:05:21.301Z,99742.16
2022-11-20T11:07:49.754Z,99741.97
2022-11-20T11:10:19.377Z,99717.72
2022-11-20T11:12:48.574Z,99723.06
2022-11-20T11:15:15.746Z,99692.16
2022-11-20T11:17:47.176Z,99673.84
2022-11-20T11:20:16.479Z,99682.13
2022-11-20T11:22:46.859Z,99653.13
2022-11-20T11:25:19.769Z,99637.78
2022-11-20T11:27:49.529Z,99640.59
2022-11-20T11:30:16.171Z,99650.81
2022-11-20T11:32:42.399Z,99664.31
2022-11-20T11:35:19.630Z,99667.38
2022-11-20T11:37:45.838Z,99677.16
2022-11-20T11:40:27.540Z,99639.66
2022-11-20T11:42:55.160Z,99624.34
2022-11-20T11:45:21.359Z,99639.06
2022-11-20T11:47:47.792Z,99674.78
2022-11-20T11:50:13.938Z,99680.34
2022-11-20T11:52:45.010Z,99678.94
2022-11-20T11:55:13.488Z,99702.66
2022-11-20T11:57:55.623Z,99710.88
2022-11-20T12:00:22.113Z,99707.88
2022-11-20T12:02:48.298Z,99724.94
2022-11-20T12:05:18.890Z,99724.13
2022-11-20T12:07:48.960Z,99732.38
2022-11-20T12:25:59.468Z,99799.75
2022-11-20T12:28:44.378Z,99811.25
2022-11-20T12:31:23.706Z,99813.41
2022-11-20T12:33:49.864Z,99816.16
2022-11-20T12:36:16.017Z,99825.84
2022-11-20T12:38:46.069Z,99829.00
2022-11-20T12:41:28.702Z,99821.25
2022-11-20T12:44:18.187Z,99823.22
2022-11-20T12:46:47.827Z,99822.91
2022-11-20T12:49:26.378Z,99830.81
2022-11-20T12:51:58.738Z,99834.34
2022-11-20T12:54:28.585Z,99835.41
2022-11-20T12:57:04.155Z,99839.16
2022-11-20T12:59:45.727Z,99849.28
2022-11-20T13:02:11.886Z,99844.34
2022-11-20T13:04:38.033Z,99845.75
2022-11-20T13:07:04.947Z,99849.34
2022-11-20T13:09:31.179Z,99862.22
2022-11-20T13:11:57.660Z,99870.50
2022-11-20T13:14:37.539Z,99864.00
2022-11-20T13:17:27.131Z,99870.94
2022-11-20T13:19:53.962Z,99877.44
2022-11-20T13:22:46.652Z,99864.03
2022-11-20T13:25:25.016Z,99872.38
2022-11-20T13:27:51.215Z,99878.31
2022-11-20T13:30:21.140Z,99878.91
2022-11-20T13:32:54.415Z,99877.13
2022-11-20T13:35:29.728Z,99875.41
2022-11-20T13:38:05.975Z,99872.41
2022-11-20T13:40:32.232Z,99867.88
2022-11-20T13:42:58.387Z,99870.59
2022-11-20T13:45:25.682Z,99861.53
2022-11-20T13:47:52.149Z,99851.84
2022-11-20T13:50:18.353Z,99843.94
2022-11-20T13:52:53.827Z,99836.78
2022-11-20T13:55:22.715Z,99832.44
2022-11-20T13:58:06.753Z,99840.16
2022-11-20T14:00:32.998Z,99839.38
2022-11-20T14:02:59.281Z,99830.47
2022-11-20T14:05:25.548Z,99819.75
2022-11-20T14:07:52.025Z,99822.94
2022-11-20T14:10:21.355Z,99824.31
2022-11-20T14:12:47.566Z,99825.50
2022-11-20T14:15:24.549Z,99830.25
2022-11-20T14:17:50.786Z,99819.59
2022-11-20T14:20:17.384Z,99814.63
2022-11-20T14:22:50.232Z,99809.88
2022-11-20T14:25:16.394Z,99802.38
2022-11-20T14:27:44.979Z,99789.47
2022-11-20T14:30:27.267Z,99797.81
2022-11-20T14:33:01.337Z,99801.78
2022-11-20T14:35:28.334Z,99794.25
2022-11-20T14:37:54.791Z,99799.56
2022-11-20T14:40:25.036Z,99790.88
2022-11-20T14:42:51.262Z,99789.06
2022-11-20T14:45:17.489Z,99782.94
2022-11-20T14:47:43.697Z,99782.31
2022-11-20T14:50:20.595Z,99780.75
2022-11-20T14:52:53.440Z,99775.44
2022-11-20T14:55:30.021Z,99772.84
2022-11-20T14:57:56.873Z,99764.56
2022-11-20T15:00:23.326Z,99761.00
2022-11-20T15:02:50.096Z,99747.56
2022-11-20T15:05:17.162Z,99752.69
2022-11-20T15:07:44.296Z,99749.72
2022-11-20T15:10:11.361Z,99735.66
2022-11-20T15:12:50.232Z,99727.41
2022-11-20T15:15:17.914Z,99727.78
2022-11-20T15:17:44.116Z,99724.97
2022-11-20T15:20:14.110Z,99726.16
2022-11-20T15:22:40.333Z,99715.09
2022-11-20T15:25:16.140Z,99717.09
2022-11-20T15:27:45.518Z,99710.38
2022-11-20T15:30:16.637Z,99711.75
2022-11-20T15:32:42.850Z,99713.16
2022-11-20T15:35:09.166Z,99704.47
2022-11-20T15:37:35.397Z,99689.84
2022-11-20T15:40:01.610Z,99686.09
2022-11-20T15:42:27.828Z,99681.34
2022-11-20T15:44:54.041Z,99677.97
2022-11-20T15:47:20.901Z,99676.41
2022-11-20T15:49:47.090Z,99685.88
2022-11-20T15:52:13.295Z,99685.31
2022-11-20T15:54:39.492Z,99684.13
2022-11-20T15:57:05.693Z,99678.38
2022-11-20T15:59:31.901Z,99672.44
2022-11-20T16:01:58.151Z,99669.69
2022-11-20T16:04:24.624Z,99679.56
2022-11-20T16:06:51.079Z,99668.31
2022-11-20T16:09:17.287Z,99668.88
2022-11-20T16:11:43.492Z,99668.50
2022-11-20T16:14:10.757Z,99668.50
2022-11-20T16:16:37.327Z,99674.63
2022-11-20T16:19:03.548Z,99669.28
2022-11-20T16:21:29.770Z,99658.19
2022-11-20T16:23:56.044Z,99659.78
2022-11-20T16:26:22.262Z,99655.44
2022-11-20T16:28:48.457Z,99658.78
2022-11-20T16:31:15.446Z,99652.06
2022-11-20T16:33:44.658Z,99642.78
2022-11-20T16:36:11.374Z,99654.22
2022-11-20T16:38:37.586Z,99658.97
2022-11-20T16:41:06.301Z,99654.63
2022-11-20T16:43:32.549Z,99657.75
2022-11-20T16:45:58.884Z,99650.22
2022-11-20T16:48:25.097Z,99652.19
2022-11-20T16:50:52.123Z,99658.50
2022-11-20T16:53:21.342Z,99651.94
2022-11-20T16:55:47.800Z,99650.09
2022-11-20T16:58:14.609Z,99650.59
2022-11-20T17:00:40.804Z,99655.03
2022-11-20T17:03:07.050Z,99653.94
2022-11-20T17:05:33.427Z,99649.72
2022-11-20T17:07:59.707Z,99648.28
2022-11-20T17:10:25.916Z,99653.13
2022-11-20T17:12:52.131Z,99660.44
2022-11-20T17:15:18.355Z,99656.50
2022-11-20T17:17:44.592Z,99650.56
2022-11-20T17:20:10.889Z,99660.81
2022-11-20T17:22:37.110Z,99647.28
2022-11-20T17:25:03.405Z,99651.56
2022-11-20T17:27:29.627Z,99655.50
2022-11-20T17:29:55.830Z,99661.03
2022-11-20T17:32:22.032Z,99659.03
2022-11-20T17:34:48.265Z,99655.13
2022-11-20T17:37:14.480Z,99653.88
2022-11-20T17:39:40.685Z,99658.94
2022-11-20T17:42:06.896Z,99666.72
2022-11-20T17:44:33.502Z,99659.78
2022-11-20T17:46:59.730Z,99652.94
2022-11-20T17:49:26.001Z,99651.38
2022-11-20T17:51:52.212Z,99653.81
2022-11-20T17:54:18.412Z,99646.38
2022-11-20T17:56:44.621Z,99646.59
2022-11-20T17:59:11.456Z,99645.81
2022-11-20T18:01:37.849Z,99625.03
2022-11-20T18:04:04.596Z,99642.03
2022-11-20T18:06:31.028Z,99632.63
2022-11-20T18:09:00.604Z,99628.69
2022-11-20T18:11:27.454Z,99625.00
2022-11-20T18:13:58.421Z,99613.72
2022-11-20T18:16:24.620Z,99614.09
2022-11-20T18:18:53.355Z,99599.69
2022-11-20T18:21:19.566Z,99600.69
2022-11-20T18:23:45.771Z,99581.34
2022-11-20T18:26:11.988Z,99584.78
2022-11-20T18:28:38.286Z,99572.53
2022-11-20T18:31:05.362Z,99559.16
2022-11-20T18:33:31.641Z,99540.41
2022-11-20T18:35:58.007Z,99525.22
2022-11-20T18:38:24.232Z,99504.72
2022-11-20T18:40:50.470Z,99487.97
2022-11-20T18:43:16.730Z,99497.03
2022-11-20T18:45:42.973Z,99475.94
2022-11-20T18:48:09.299Z,99473.38
2022-11-20T18:50:42.986Z,99471.78
2022-11-20T18:53:12.494Z,99468.81
2022-11-20T18:55:38.757Z,99453.81
2022-11-20T18:58:05.190Z,99448.69
2022-11-20T19:00:31.404Z,99435.84
2022-11-20T19:02:57.630Z,99435.06
2022-11-20T19:05:23.873Z,99433.06
2022-11-20T19:07:50.087Z,99425.38
2022-11-20T19:10:18.105Z,99408.03
2022-11-20T19:12:44.324Z,99402.31
2022-11-20T19:15:10.557Z,99395.78
2022-11-20T19:17:36.798Z,99387.72
2022-11-20T19:20:03.014Z,99377.66
2022-11-20T19:22:29.227Z,99385.75
2022-11-20T19:24:55.468Z,99370.94
2022-11-20T19:27:21.712Z,99373.09
2022-11-20T19:29:47.986Z,99361.47
2022-11-20T19:32:14.198Z,99362.06
2022-11-20T19:34:40.416Z,99349.44
2022-11-20T19:37:06.642Z,99347.63
2022-11-20T19:39:32.883Z,99336.97
2022-11-20T19:41:59.090Z,99327.13
2022-11-20T19:44:25.330Z,99329.91
2022-11-20T19:46:51.536Z,99322.22
2022-11-20T19:49:17.848Z,99322.06
2022-11-20T19:51:45.013Z,99313.53
2022-11-20T19:54:11.270Z,99305.06
2022-11-20T19:56:37.477Z,99300.94
2022-11-20T19:59:03.692Z,99306.66
2022-11-20T20:01:30.449Z,99291.47
2022-11-20T20:03:57.298Z,99281.44
2022-11-20T20:06:24.283Z,99274.31
2022-11-20T20:08:57.171Z,99265.84
2022-11-20T20:11:23.674Z,99262.09
2022-11-20T20:13:49.881Z,99254.00
2022-11-20T20:16:16.964Z,99247.31
2022-11-20T20:18:43.170Z,99237.84
2022-11-20T20:21:10.085Z,99226.75
2022-11-20T20:23:36.319Z,99216.31
2022-11-20T20:26:02.682Z,99217.50
2022-11-20T20:28:28.921Z,99214.72
2022-11-20T20:30:55.160Z,99212.38
2022-11-20T20:33:21.382Z,99198.34
2022-11-20T20:35:47.606Z,99195.00
2022-11-20T20:38:13.884Z,99192.81
2022-11-20T20:40:45.860Z,99193.44
2022-11-20T20:43:13.599Z,99183.94
2022-11-20T20:45:49.032Z,99183.75
2022-11-20T20:48:15.611Z,99176.06
2022-11-20T20:50:41.972Z,99170.72
2022-11-20T20:53:08.287Z,99164.41
2022-11-20T20:55:34.632Z,99162.44
2022-11-20T20:58:00.912Z,99154.75
2022-11-20T21:00:27.129Z,99147.44
2022-11-20T21:02:53.338Z,99142.69
2022-11-20T21:05:19.577Z,99132.41
2022-11-20T21:07:45.878Z,99131.22
2022-11-20T21:10:12.109Z,99118.59
2022-11-20T21:12:38.361Z,99121.16
2022-11-20T21:15:04.761Z,99114.84
2022-11-20T21:17:30.956Z,99107.97
2022-11-20T21:19:57.176Z,99099.44
2022-11-20T21:22:23.388Z,99096.88
2022-11-20T21:24:49.609Z,99094.75
2022-11-20T21:27:15.811Z,99090.97
2022-11-20T21:29:42.003Z,99086.06
2022-11-20T21:32:08.214Z,99083.09
2022-11-20T21:34:34.415Z,99072.84
2022-11-20T21:37:00.618Z,99069.28
2022-11-20T21:39:26.809Z,99067.09
2022-11-20T21:41:53.017Z,99064.59
2022-11-20T21:44:34.573Z,99058.88
2022-11-20T21:47:01.046Z,99062.47
2022-11-20T21:49:27.249Z,99052.25
2022-11-20T21:51:53.473Z,99058.75
2022-11-20T21:54:19.680Z,99057.38
2022-11-20T21:56:45.917Z,99045.19
2022-11-20T21:59:12.394Z,99036.50
2022-11-20T22:01:38.702Z,99037.88
2022-11-20T22:04:05.051Z,99038.66
2022-11-20T22:06:31.971Z,99038.13
2022-11-20T22:08:58.172Z,99052.38
2022-11-20T22:11:24.389Z,99052.59
2022-11-20T22:13:50.598Z,99048.81
2022-11-20T22:16:16.808Z,99053.31
2022-11-20T22:18:43.486Z,99051.31
2022-11-20T22:21:09.704Z,99048.19
2022-11-20T22:23:35.918Z,99071.50
2022-11-20T22:26:02.961Z,99077.56
2022-11-20T22:28:29.161Z,99081.28
2022-11-20T22:30:58.939Z,99097.47
2022-11-20T22:33:25.697Z,99119.19
2022-11-20T22:35:51.910Z,99138.13
2022-11-20T22:38:18.117Z,99136.75
2022-11-20T22:40:44.313Z,99143.84
2022-11-20T22:43:10.534Z,99152.69
2022-11-20T22:45:36.741Z,99153.69
2022-11-20T22:48:02.999Z,99174.97
2022-11-20T22:50:29.205Z,99174.78
2022-11-20T22:52:55.415Z,99185.00
2022-11-20T22:55:21.613Z,99191.72
2022-11-20T22:57:47.830Z,99195.84
2022-11-20T23:00:14.261Z,99196.44
2022-11-20T23:02:43.844Z,99199.59
2022-11-20T23:05:10.049Z,99200.78
2022-11-20T23:07:40.830Z,99198.03
2022-11-20T23:10:07.437Z,99190.75
2022-11-20T23:12:33.644Z,99183.63
2022-11-20T23:14:59.859Z,99190.56
2022-11-20T23:17:26.069Z,99186.41
2022-11-20T23:19:52.267Z,99179.09
2022-11-20T23:22:18.477Z,99177.72
2022-11-20T23:24:44.674Z,99172.81
2022-11-20T23:27:10.894Z,99177.53
2022-11-20T23:29:37.126Z,99177.31
2022-11-20T23:32:03.353Z,99180.50
2022-11-20T23:34:29.689Z,99176.34
2022-11-20T23:36:55.965Z,99183.63
2022-11-20T23:39:22.176Z,99183.22
2022-11-20T23:41:48.401Z,99174.38
2022-11-20T23:44:14.602Z,99179.66
2022-11-20T23:46:40.807Z,99184.41
2022-11-20T23:49:07.066Z,99182.22
2022-11-20T23:51:33.265Z,99177.13
2022-11-20T23:54:04.607Z,99187.75
2022-11-20T23:56:31.194Z,99182.81
2022-11-20T23:58:57.416Z,99187.88
